createdAt,value
2023-02-13T00:00:43.958Z,41.63
2023-02-13T00:03:10.350Z,34.43
2023-02-13T00:05:36.875Z,40.73
2023-02-13T00:08:03.736Z,38.93
2023-02-13T00:10:30.240Z,35.37
2023-02-13T00:12:57.024Z,37.63
2023-02-13T00:15:23.594Z,39.67
2023-02-13T00:17:50.129Z,39.03
2023-02-13T00:20:16.718Z,33.70
2023-02-13T00:22:43.209Z,36.73
2023-02-13T00:25:09.724Z,32.47
2023-02-13T00:27:38.713Z,32.93
2023-02-13T00:30:06.141Z,35.73
2023-02-13T00:32:32.742Z,33.57
2023-02-13T00:34:59.438Z,33.87
2023-02-13T00:37:26.379Z,34.17
2023-02-13T00:39:53.077Z,38.83
2023-02-13T00:42:19.901Z,34.17
2023-02-13T00:44:46.312Z,33.70
2023-02-13T00:47:12.856Z,35.77
2023-02-13T00:49:39.334Z,35.70
2023-02-13T00:52:05.818Z,36.33
2023-02-13T00:54:32.606Z,37.67
2023-02-13T00:56:59.139Z,41.37
2023-02-13T00:59:27.185Z,40.70
2023-02-13T01:01:53.723Z,33.00
2023-02-13T01:04:20.275Z,30.93
2023-02-13T01:06:46.722Z,36.33
2023-02-13T01:09:14.418Z,33.60
2023-02-13T01:11:40.897Z,32.87
2023-02-13T01:14:07.365Z,34.87
2023-02-13T01:16:33.754Z,36.13
2023-02-13T01:19:00.456Z,37.43
2023-02-13T01:21:26.898Z,34.80
2023-02-13T01:23:53.662Z,36.47
2023-02-13T01:26:23.180Z,28.37
2023-02-13T01:28:53.081Z,31.47
2023-02-13T01:31:19.571Z,34.38
2023-02-13T01:33:46.295Z,32.97
2023-02-13T01:36:13.309Z,32.20
2023-02-13T01:38:40.581Z,37.33
2023-02-13T01:41:08.213Z,31.50
2023-02-13T01:43:48.409Z,33.23
2023-02-13T01:46:36.109Z,47.38
2023-02-13T01:49:13.765Z,44.63
2023-02-13T01:51:41.505Z,37.30
2023-02-13T01:54:13.089Z,34.87
2023-02-13T01:56:55.820Z,36.20
2023-02-13T01:59:37.873Z,35.17
2023-02-13T02:02:04.523Z,30.90
2023-02-13T02:04:38.554Z,29.97
2023-02-13T02:07:10.887Z,33.17
2023-02-13T02:09:40.890Z,33.67
2023-02-13T02:12:19.693Z,36.33
2023-02-13T02:14:46.808Z,38.53
2023-02-13T02:17:13.508Z,32.70
2023-02-13T02:20:07.930Z,34.07
2023-02-13T02:23:16.672Z,33.30
2023-02-13T02:26:06.489Z,30.00
2023-02-13T02:28:57.096Z,29.60
2023-02-13T02:32:00.544Z,33.03
2023-02-13T02:34:47.093Z,30.67
2023-02-13T02:37:25.634Z,33.70
2023-02-13T02:40:34.554Z,32.53
2023-02-13T02:43:19.781Z,29.20
2023-02-13T02:46:01.123Z,30.73
2023-02-13T02:48:46.819Z,28.77
2023-02-13T02:51:41.446Z,33.90
2023-02-13T02:54:22.229Z,32.60
2023-02-13T02:56:50.650Z,28.25
2023-02-13T02:59:20.728Z,29.60
2023-02-13T03:01:48.239Z,31.77
2023-02-13T03:04:46.287Z,30.73
2023-02-13T03:07:16.361Z,28.80
2023-02-13T03:09:48.282Z,29.98
2023-02-13T03:12:19.834Z,29.10
2023-02-13T03:14:46.315Z,36.03
2023-02-13T03:17:15.938Z,30.57
2023-02-13T03:19:55.681Z,30.70
2023-02-13T03:22:41.915Z,30.00
2023-02-13T03:25:08.494Z,30.07
2023-02-13T03:27:44.206Z,32.40
2023-02-13T03:30:47.969Z,28.77
2023-02-13T03:33:26.042Z,26.50
2023-02-13T03:36:13.158Z,32.80
2023-02-13T03:38:47.050Z,26.00
2023-02-13T03:41:19.886Z,31.77
2023-02-13T03:44:06.117Z,31.40
2023-02-13T03:46:38.806Z,27.83
2023-02-13T03:49:07.932Z,32.33
2023-02-13T03:51:40.107Z,29.00
2023-02-13T03:54:16.932Z,31.73
2023-02-13T03:56:45.488Z,32.00
2023-02-13T03:59:22.457Z,34.77
2023-02-13T04:01:55.481Z,31.37
2023-02-13T04:04:48.702Z,30.93
2023-02-13T04:07:18.818Z,25.93
2023-02-13T04:09:45.594Z,37.28
2023-02-13T04:12:30.519Z,30.90
2023-02-13T04:15:09.608Z,26.07
2023-02-13T04:17:46.059Z,32.13
2023-02-13T04:20:13.358Z,27.43
2023-02-13T04:22:44.682Z,27.77
2023-02-13T04:25:13.803Z,28.33
2023-02-13T04:27:40.253Z,30.17
2023-02-13T04:30:07.540Z,28.57
2023-02-13T04:32:34.212Z,32.33
2023-02-13T04:35:01.081Z,32.20
2023-02-13T04:37:27.678Z,36.43
2023-02-13T04:39:54.223Z,32.33
2023-02-13T04:42:20.659Z,32.47
2023-02-13T04:44:47.355Z,36.00
2023-02-13T04:47:13.797Z,35.50
2023-02-13T04:49:40.223Z,43.30
2023-02-13T04:52:06.735Z,35.80
2023-02-13T04:54:33.283Z,34.93
2023-02-13T04:56:59.889Z,36.70
2023-02-13T04:59:26.380Z,33.57
2023-02-13T05:01:53.318Z,36.37
2023-02-13T05:04:19.845Z,41.20
2023-02-13T05:06:46.436Z,37.97
2023-02-13T05:09:13.028Z,40.93
2023-02-13T05:11:39.426Z,35.87
2023-02-13T05:14:05.867Z,35.00
2023-02-13T05:16:32.949Z,39.60
2023-02-13T05:18:59.374Z,39.47
2023-02-13T05:21:27.277Z,32.80
2023-02-13T05:23:53.806Z,34.63
2023-02-13T05:26:22.506Z,31.23
2023-02-13T05:28:48.927Z,38.23
2023-02-13T05:31:15.746Z,34.63
2023-02-13T05:33:42.631Z,29.73
2023-02-13T05:36:09.364Z,31.10
2023-02-13T05:38:36.031Z,34.60
2023-02-13T05:41:02.678Z,35.00
2023-02-13T05:43:29.604Z,28.43
2023-02-13T05:46:02.721Z,32.40
2023-02-13T05:48:30.521Z,31.53
2023-02-13T05:50:57.660Z,31.30
2023-02-13T05:53:24.697Z,29.83
2023-02-13T05:55:51.444Z,29.37
2023-02-13T05:58:21.681Z,30.73
2023-02-13T06:00:48.504Z,29.80
2023-02-13T06:03:15.699Z,32.47
2023-02-13T06:05:42.229Z,47.30
2023-02-13T06:08:08.639Z,38.07
2023-02-13T06:10:35.209Z,36.20
2023-02-13T06:13:01.752Z,36.20
2023-02-13T06:15:29.143Z,44.47
2023-02-13T06:17:56.101Z,40.37
2023-02-13T06:20:22.704Z,37.73
2023-02-13T06:22:50.821Z,45.07
2023-02-13T06:25:17.561Z,36.73
2023-02-13T06:27:44.587Z,34.73
2023-02-13T06:30:11.956Z,38.93
2023-02-13T06:32:39.839Z,35.03
2023-02-13T06:35:07.011Z,39.00
2023-02-13T06:37:34.811Z,35.17
2023-02-13T06:40:01.396Z,33.90
2023-02-13T06:42:28.112Z,38.13
2023-02-13T06:44:54.833Z,37.47
2023-02-13T06:47:21.791Z,36.60
2023-02-13T06:49:48.477Z,37.00
2023-02-13T06:52:15.140Z,44.77
2023-02-13T06:54:47.768Z,43.03
2023-02-13T06:57:15.451Z,40.03
2023-02-13T06:59:42.251Z,46.70
2023-02-13T07:02:13.460Z,45.33
2023-02-13T07:04:40.328Z,54.37
2023-02-13T07:07:09.872Z,45.27
2023-02-13T07:09:37.013Z,36.50
2023-02-13T07:12:04.610Z,41.00
2023-02-13T07:14:31.369Z,44.17
2023-02-13T07:16:58.703Z,40.50
2023-02-13T07:19:25.319Z,45.70
2023-02-13T07:21:54.364Z,39.90
2023-02-13T07:24:20.853Z,40.20
2023-02-13T07:26:47.789Z,45.27
2023-02-13T07:29:14.737Z,62.43
2023-02-13T07:31:41.634Z,50.33
2023-02-13T07:34:09.614Z,56.03
2023-02-13T07:36:36.268Z,61.00
2023-02-13T07:39:02.639Z,65.23
2023-02-13T07:41:29.092Z,55.80
2023-02-13T07:43:56.020Z,62.20
2023-02-13T07:46:22.579Z,90.53
2023-02-13T07:48:49.167Z,64.70
2023-02-13T07:51:15.673Z,69.87
2023-02-13T07:53:42.362Z,58.53
2023-02-13T07:56:11.013Z,54.33
2023-02-13T07:58:38.195Z,68.60
2023-02-13T08:01:13.702Z,51.47
2023-02-13T08:03:40.682Z,54.47
2023-02-13T08:06:08.584Z,55.30
2023-02-13T08:08:36.210Z,46.13
2023-02-13T08:11:23.271Z,52.57
2023-02-13T08:13:49.838Z,50.30
2023-02-13T08:16:16.931Z,46.37
2023-02-13T08:18:44.408Z,50.47
2023-02-13T08:21:11.340Z,49.17
2023-02-13T08:23:38.046Z,42.57
2023-02-13T08:26:04.640Z,37.50
2023-02-13T08:28:31.471Z,45.40
2023-02-13T08:30:58.276Z,43.17
2023-02-13T08:33:25.074Z,39.77
2023-02-13T08:35:51.875Z,37.70
2023-02-13T08:38:18.373Z,43.80
2023-02-13T08:40:44.790Z,30.60
2023-02-13T08:43:11.422Z,31.47
2023-02-13T08:45:38.443Z,33.00
2023-02-13T08:48:05.104Z,30.20
2023-02-13T08:50:31.716Z,29.27
2023-02-13T08:52:58.818Z,27.33
2023-02-13T08:55:26.021Z,28.93
2023-02-13T08:57:52.494Z,30.20
2023-02-13T09:00:19.542Z,30.90
2023-02-13T09:02:46.220Z,36.77
2023-02-13T09:05:12.729Z,30.90
2023-02-13T09:07:39.275Z,34.30
2023-02-13T09:10:06.821Z,33.63
2023-02-13T09:12:33.241Z,37.93
2023-02-13T09:14:59.729Z,35.95
2023-02-13T09:17:26.230Z,35.40
2023-02-13T09:19:52.750Z,41.78
2023-02-13T09:22:19.443Z,48.53
2023-02-13T09:24:46.201Z,40.83
2023-02-13T09:27:13.020Z,30.20
2023-02-13T09:29:39.676Z,34.85
2023-02-13T09:32:06.403Z,30.45
2023-02-13T09:34:33.171Z,29.90
2023-02-13T09:36:59.541Z,28.52
2023-02-13T09:39:26.416Z,30.20
2023-02-13T09:41:54.569Z,27.55
2023-02-13T09:44:26.899Z,27.50
2023-02-13T09:46:53.893Z,23.02
2023-02-13T09:49:26.238Z,26.63
2023-02-13T09:51:57.292Z,22.05
2023-02-13T09:54:24.313Z,25.38
2023-02-13T09:57:00.021Z,23.25
2023-02-13T09:59:32.326Z,24.10
2023-02-13T10:02:14.259Z,22.17
2023-02-13T10:04:52.542Z,25.98
2023-02-13T10:07:40.263Z,28.52
2023-02-13T10:10:30.278Z,24.17
2023-02-13T10:13:23.545Z,22.02
2023-02-13T10:15:53.152Z,39.75
2023-02-13T10:18:24.607Z,21.92
2023-02-13T10:20:51.150Z,23.13
2023-02-13T10:23:39.094Z,21.25
2023-02-13T10:26:11.647Z,20.67
2023-02-13T10:28:46.951Z,21.48
2023-02-13T10:31:22.794Z,23.20
2023-02-13T10:33:51.665Z,22.23
2023-02-13T10:36:24.690Z,24.70
2023-02-13T10:39:13.419Z,22.45
2023-02-13T10:41:54.912Z,22.23
2023-02-13T10:44:30.413Z,22.40
2023-02-13T10:47:26.583Z,22.17
2023-02-13T10:50:22.653Z,16.38
2023-02-13T10:52:59.063Z,21.25
2023-02-13T10:55:58.012Z,19.23
2023-02-13T10:58:32.814Z,17.30
2023-02-13T11:01:09.685Z,18.38
2023-02-13T11:03:36.158Z,14.55
2023-02-13T11:06:07.649Z,14.15
2023-02-13T11:08:39.339Z,15.82
2023-02-13T11:11:36.250Z,14.57
2023-02-13T11:14:24.145Z,19.13
2023-02-13T11:16:59.333Z,22.70
2023-02-13T11:19:33.764Z,15.93
2023-02-13T11:22:09.138Z,26.85
2023-02-13T11:24:37.003Z,20.15
2023-02-13T11:27:07.240Z,17.63
2023-02-13T11:29:36.514Z,15.75
2023-02-13T11:32:24.797Z,18.23
2023-02-13T11:34:51.595Z,14.75
2023-02-13T11:37:21.394Z,15.68
2023-02-13T11:39:51.425Z,17.92
2023-02-13T11:42:21.008Z,16.02
2023-02-13T11:44:55.016Z,15.98
2023-02-13T11:47:37.857Z,14.20
2023-02-13T11:50:07.778Z,14.45
2023-02-13T11:52:36.106Z,17.43
2023-02-13T11:55:06.907Z,23.80
2023-02-13T11:57:37.682Z,16.90
2023-02-13T12:00:29.284Z,14.55
2023-02-13T12:02:55.951Z,13.35
2023-02-13T12:05:25.491Z,13.70
2023-02-13T12:07:55.595Z,12.48
2023-02-13T12:10:27.572Z,14.13
2023-02-13T12:13:15.496Z,15.23
2023-02-13T12:15:43.492Z,16.40
2023-02-13T12:18:27.821Z,14.27
2023-02-13T12:21:03.661Z,16.52
2023-02-13T12:23:40.743Z,14.13
2023-02-13T12:26:13.729Z,12.70
2023-02-13T12:29:22.652Z,11.55
2023-02-13T12:32:17.487Z,13.10
2023-02-13T12:35:11.539Z,15.32
2023-02-13T12:37:47.049Z,14.85
2023-02-13T12:40:30.009Z,16.90
2023-02-13T12:43:21.551Z,15.30
2023-02-13T12:45:56.396Z,14.13
2023-02-13T12:48:47.566Z,14.27
2023-02-13T12:51:32.921Z,15.10
2023-02-13T12:54:36.761Z,16.15
2023-02-13T12:57:17.645Z,14.50
2023-02-13T13:02:44.422Z,15.38
2023-02-13T13:05:22.517Z,16.38
2023-02-13T13:08:15.119Z,15.38
2023-02-13T13:11:11.315Z,24.05
2023-02-13T13:14:09.273Z,19.35
2023-02-13T13:16:53.182Z,16.38
2023-02-13T13:19:34.930Z,13.05
2023-02-13T13:22:20.615Z,14.57
2023-02-13T13:25:14.397Z,14.52
2023-02-13T13:27:45.027Z,16.73
2023-02-13T13:30:26.143Z,15.52
2023-02-13T13:33:01.463Z,16.98
2023-02-13T13:35:30.458Z,14.57
2023-02-13T13:38:11.468Z,14.93
2023-02-13T13:43:33.343Z,14.57
2023-02-13T13:46:22.584Z,13.68
2023-02-13T13:49:05.114Z,15.73
2023-02-13T13:51:31.658Z,14.90
2023-02-13T13:54:01.198Z,13.98
2023-02-13T13:56:53.423Z,14.15
2023-02-13T13:59:45.836Z,16.02
2023-02-13T14:02:18.469Z,14.90
2023-02-13T14:05:26.553Z,15.63
2023-02-13T14:08:31.886Z,16.67
2023-02-13T14:11:01.820Z,17.55
2023-02-13T14:13:34.652Z,15.33
2023-02-13T14:16:02.112Z,13.40
2023-02-13T14:18:30.349Z,13.15
2023-02-13T14:21:01.753Z,16.67
2023-02-13T14:23:28.507Z,17.08
2023-02-13T14:26:16.622Z,14.73
2023-02-13T14:28:49.222Z,14.93
2023-02-13T14:31:30.794Z,20.25
2023-02-13T14:34:17.796Z,16.40
2023-02-13T14:36:48.427Z,18.55
2023-02-13T14:39:28.654Z,17.33
2023-02-13T14:41:55.193Z,16.00
2023-02-13T14:44:36.186Z,17.30
2023-02-13T14:49:42.109Z,22.13
2023-02-13T14:52:19.156Z,17.17
2023-02-13T14:54:50.398Z,18.77
2023-02-13T14:57:42.359Z,18.75
2023-02-13T15:00:27.627Z,16.75
2023-02-13T15:02:59.684Z,16.17
2023-02-13T15:05:32.812Z,21.58
2023-02-13T15:08:18.489Z,18.40
2023-02-13T15:10:50.879Z,16.83
2023-02-13T15:13:23.315Z,16.05
2023-02-13T15:16:11.830Z,22.48
2023-02-13T15:18:44.424Z,18.63
2023-02-13T15:21:17.207Z,17.33
2023-02-13T15:23:44.573Z,16.92
2023-02-13T15:26:20.487Z,22.70
2023-02-13T15:29:25.838Z,17.52
2023-02-13T15:31:55.041Z,15.98
2023-02-13T15:34:26.836Z,16.88
2023-02-13T15:36:54.376Z,18.25
2023-02-13T15:39:25.703Z,18.67
2023-02-13T15:41:55.948Z,19.27
2023-02-13T15:44:26.741Z,20.65
2023-02-13T15:49:24.582Z,17.67
2023-02-13T15:52:01.801Z,17.70
2023-02-13T15:54:33.816Z,18.90
2023-02-13T15:57:04.681Z,17.63
2023-02-13T16:02:01.281Z,18.13
2023-02-13T16:04:28.153Z,17.15
2023-02-13T16:06:56.406Z,17.83
2023-02-13T16:09:31.456Z,18.98
2023-02-13T16:12:07.475Z,18.88
2023-02-13T16:14:37.168Z,20.40
2023-02-13T16:17:07.871Z,19.08
2023-02-13T16:19:41.915Z,18.88
2023-02-13T16:22:26.437Z,21.00
2023-02-13T16:24:55.642Z,17.95
2023-02-13T16:27:27.591Z,19.35
2023-02-13T16:30:00.284Z,21.88
2023-02-13T16:32:32.187Z,19.73
2023-02-13T16:35:17.047Z,21.02
2023-02-13T16:37:53.240Z,21.25
2023-02-13T16:40:36.988Z,20.48
2023-02-13T16:43:41.248Z,21.80
2023-02-13T16:46:23.089Z,23.58
2023-02-13T16:48:58.478Z,21.20
2023-02-13T16:51:30.895Z,23.77
2023-02-13T16:54:03.495Z,25.50
2023-02-13T16:56:52.354Z,23.00
2023-02-13T16:59:26.847Z,21.90
2023-02-13T17:02:14.281Z,22.73
2023-02-13T17:04:51.388Z,22.75
2023-02-13T17:07:24.044Z,26.70
2023-02-13T17:09:59.830Z,24.83
2023-02-13T17:12:28.985Z,22.33
2023-02-13T17:14:57.910Z,24.80
2023-02-13T17:17:26.267Z,23.87
2023-02-13T17:19:52.681Z,22.10
2023-02-13T17:22:40.770Z,28.20
2023-02-13T17:25:23.769Z,27.57
2023-02-13T17:27:55.499Z,26.17
2023-02-13T17:30:31.038Z,22.55
2023-02-13T17:33:00.642Z,25.73
2023-02-13T17:35:27.221Z,23.87
2023-02-13T17:37:54.158Z,25.30
2023-02-13T17:40:24.282Z,25.53
2023-02-13T17:42:54.375Z,28.33
2023-02-13T17:45:23.875Z,27.05
2023-02-13T17:47:50.440Z,25.20
2023-02-13T17:50:17.064Z,27.37
2023-02-13T17:52:45.445Z,28.30
2023-02-13T17:55:28.554Z,26.70
2023-02-13T17:57:56.759Z,27.93
2023-02-13T18:00:25.370Z,26.37
2023-02-13T18:02:52.075Z,26.03
2023-02-13T18:05:19.299Z,26.50
2023-02-13T18:07:47.065Z,25.73
2023-02-13T18:10:23.335Z,27.63
2023-02-13T18:12:50.724Z,28.67
2023-02-13T18:15:18.686Z,30.40
2023-02-13T18:17:45.311Z,31.83
2023-02-13T18:20:16.802Z,29.27
2023-02-13T18:22:43.858Z,28.83
2023-02-13T18:25:11.077Z,28.00
2023-02-13T18:27:37.563Z,28.67
2023-02-13T18:30:04.717Z,29.23
2023-02-13T18:32:32.853Z,30.50
2023-02-13T18:34:59.421Z,31.33
2023-02-13T18:37:25.925Z,33.70
2023-02-13T18:39:52.639Z,32.67
2023-02-13T18:42:18.958Z,33.03
2023-02-13T18:44:45.442Z,31.60
2023-02-13T18:47:11.953Z,32.93
2023-02-13T18:49:38.777Z,33.27
2023-02-13T18:52:05.876Z,31.93
2023-02-13T18:54:32.565Z,31.67
2023-02-13T18:56:58.967Z,36.07
2023-02-13T18:59:25.382Z,30.60
2023-02-13T19:01:51.841Z,33.93
2023-02-13T19:04:18.346Z,34.57
2023-02-13T19:06:45.034Z,30.13
2023-02-13T19:09:11.555Z,34.90
2023-02-13T19:11:38.384Z,33.53
2023-02-13T19:14:05.627Z,37.97
2023-02-13T19:16:34.898Z,36.63
2023-02-13T19:19:04.525Z,35.53
2023-02-13T19:21:33.222Z,38.53
2023-02-13T19:24:02.659Z,33.33
2023-02-13T19:26:29.562Z,32.23
2023-02-13T19:28:57.606Z,37.87
2023-02-13T19:31:26.814Z,32.93
2023-02-13T19:33:53.649Z,39.20
2023-02-13T19:36:22.964Z,37.70
2023-02-13T19:39:00.794Z,35.80
2023-02-13T19:41:27.648Z,34.90
2023-02-13T19:43:54.402Z,46.20
2023-02-13T19:46:23.981Z,47.30
2023-02-13T19:48:51.055Z,45.83
2023-02-13T19:51:21.646Z,41.23
2023-02-13T19:53:48.681Z,36.47
2023-02-13T19:56:15.591Z,40.17
2023-02-13T19:58:43.710Z,37.20
2023-02-13T20:01:19.671Z,37.03
2023-02-13T20:03:46.601Z,33.30
2023-02-13T20:06:19.828Z,36.27
2023-02-13T20:08:46.927Z,37.70
2023-02-13T20:11:15.372Z,37.20
2023-02-13T20:13:41.879Z,43.33
2023-02-13T20:16:11.653Z,35.57
2023-02-13T20:18:39.539Z,38.13
2023-02-13T20:21:16.565Z,40.27
2023-02-13T20:23:47.877Z,37.27
2023-02-13T20:26:14.940Z,37.13
2023-02-13T20:28:42.742Z,38.43
2023-02-13T20:31:21.105Z,39.43
2023-02-13T20:33:49.977Z,42.47
2023-02-13T20:36:23.029Z,41.17
2023-02-13T20:38:52.210Z,39.07
2023-02-13T20:41:21.621Z,42.60
2023-02-13T20:43:48.387Z,43.23
2023-02-13T20:46:16.133Z,38.17
2023-02-13T20:48:44.022Z,38.57
2023-02-13T20:51:12.854Z,39.60
2023-02-13T20:53:40.645Z,39.30
2023-02-13T20:56:08.408Z,42.70
2023-02-13T20:58:36.134Z,45.03
2023-02-13T21:01:04.081Z,39.80
2023-02-13T21:03:30.618Z,41.33
2023-02-13T21:05:57.175Z,41.77
2023-02-13T21:08:23.682Z,41.80
2023-02-13T21:10:50.316Z,41.53
2023-02-13T21:13:16.793Z,46.80
2023-02-13T21:15:43.580Z,42.27
2023-02-13T21:18:12.284Z,43.23
2023-02-13T21:20:38.834Z,42.97
2023-02-13T21:23:05.918Z,39.17
2023-02-13T21:25:34.081Z,46.47
2023-02-13T21:28:01.003Z,44.00
2023-02-13T21:30:27.532Z,43.97
2023-02-13T21:32:54.406Z,48.67
2023-02-13T21:35:20.802Z,47.10
2023-02-13T21:37:47.233Z,44.43
2023-02-13T21:40:13.767Z,47.77
2023-02-13T21:42:40.233Z,40.70
2023-02-13T21:45:07.073Z,47.23
2023-02-13T21:47:33.526Z,47.93
2023-02-13T21:49:59.977Z,47.23
2023-02-13T21:52:26.439Z,45.77
2023-02-13T21:54:52.993Z,44.70
2023-02-13T21:57:19.550Z,44.87
2023-02-13T21:59:46.676Z,42.97
2023-02-13T22:02:13.231Z,47.83
2023-02-13T22:04:41.939Z,43.57
2023-02-13T22:07:08.368Z,42.97
2023-02-13T22:09:34.878Z,40.53
2023-02-13T22:12:01.610Z,45.70
2023-02-13T22:14:28.144Z,47.37
2023-02-13T22:16:54.649Z,47.37
2023-02-13T22:19:21.676Z,43.23
2023-02-13T22:21:48.341Z,45.77
2023-02-13T22:24:15.127Z,48.63
2023-02-13T22:26:43.261Z,42.93
2023-02-13T22:29:12.625Z,46.00
2023-02-13T22:31:39.607Z,44.90
2023-02-13T22:34:07.079Z,42.10
2023-02-13T22:36:35.588Z,45.70
2023-02-13T22:39:02.305Z,42.07
2023-02-13T22:41:28.913Z,43.93
2023-02-13T22:43:55.817Z,50.53
2023-02-13T22:46:30.757Z,40.30
2023-02-13T22:48:57.600Z,45.00
2023-02-13T22:51:27.398Z,45.00
2023-02-13T22:53:55.724Z,46.87
2023-02-13T22:56:23.882Z,41.87
2023-02-13T22:58:50.642Z,44.27
2023-02-13T23:01:19.574Z,46.77
2023-02-13T23:03:46.467Z,50.10
2023-02-13T23:06:18.508Z,47.17
2023-02-13T23:08:45.315Z,53.47
2023-02-13T23:11:14.778Z,49.83
2023-02-13T23:13:43.804Z,50.87
2023-02-13T23:16:14.757Z,58.60
2023-02-13T23:18:41.640Z,50.30
2023-02-13T23:21:08.485Z,49.47
2023-02-13T23:23:36.368Z,46.50
2023-02-13T23:26:06.732Z,45.50
2023-02-13T23:28:33.907Z,49.60
2023-02-13T23:31:02.173Z,42.60
2023-02-13T23:33:29.392Z,46.30
2023-02-13T23:35:56.222Z,46.30
2023-02-13T23:38:23.830Z,43.07
2023-02-13T23:40:50.341Z,52.00
2023-02-13T23:43:16.894Z,39.83
2023-02-13T23:45:43.431Z,41.53
2023-02-13T23:48:10.067Z,45.00
2023-02-13T23:50:36.560Z,43.50
2023-02-13T23:53:03.060Z,45.97
2023-02-13T23:55:29.819Z,45.33
2023-02-13T23:57:56.316Z,50.70
